sensor_id;sensor_type;location;lat;lon;timestamp;pressure;altitude;pressure_sealevel;temperature;humidity
38612;BME280;24368;52.156;20.788;2023-10-08T00:00:29;100062.50;;;10.08;100.00
38612;BME280;24368;52.156;20.788;2023-10-08T00:06:10;100066.70;;;10.01;100.00
38612;BME280;24368;52.156;20.788;2023-10-08T00:11:17;100072.67;;;9.94;100.00
38612;BME280;24368;52.156;20.788;2023-10-08T00:16:19;100073.55;;;10.01;100.00
38612;BME280;24368;52.156;20.788;2023-10-08T00:21:23;100061.27;;;9.99;100.00
38612;BME280;24368;52.156;20.788;2023-10-08T00:26:29;100050.31;;;10.03;100.00
38612;BME280;24368;52.156;20.788;2023-10-08T00:31:34;100035.83;;;10.05;100.00
38612;BME280;24368;52.156;20.788;2023-10-08T00:36:44;100023.53;;;10.09;100.00
38612;BME280;24368;52.156;20.788;2023-10-08T00:41:46;100038.84;;;10.00;100.00
38612;BME280;24368;52.156;20.788;2023-10-08T00:46:51;100053.71;;;10.03;100.00
38612;BME280;24368;52.156;20.788;2023-10-08T00:51:55;100051.52;;;9.95;100.00
38612;BME280;24368;52.156;20.788;2023-10-08T00:57:09;100043.92;;;9.95;100.00
38612;BME280;24368;52.156;20.788;2023-10-08T01:02:12;100040.64;;;9.98;100.00
38612;BME280;24368;52.156;20.788;2023-10-08T01:07:22;100045.23;;;9.99;100.00
38612;BME280;24368;52.156;20.788;2023-10-08T01:12:25;100051.36;;;9.96;100.00
38612;BME280;24368;52.156;20.788;2023-10-08T01:17:37;100045.88;;;9.96;100.00
38612;BME280;24368;52.156;20.788;2023-10-08T01:22:48;100050.98;;;9.96;100.00
38612;BME280;24368;52.156;20.788;2023-10-08T01:27:56;100043.15;;;9.96;100.00
38612;BME280;24368;52.156;20.788;2023-10-08T01:33:02;100020.98;;;9.96;100.00
38612;BME280;24368;52.156;20.788;2023-10-08T01:38:05;100038.95;;;9.92;100.00
38612;BME280;24368;52.156;20.788;2023-10-08T01:43:09;100038.55;;;9.87;100.00
38612;BME280;24368;52.156;20.788;2023-10-08T01:48:15;100050.70;;;9.82;100.00
38612;BME280;24368;52.156;20.788;2023-10-08T01:53:38;100066.90;;;9.79;100.00
38612;BME280;24368;52.156;20.788;2023-10-08T01:58:40;100078.44;;;9.81;100.00
38612;BME280;24368;52.156;20.788;2023-10-08T02:03:41;100082.16;;;9.77;100.00
38612;BME280;24368;52.156;20.788;2023-10-08T02:08:43;100072.38;;;9.80;100.00
38612;BME280;24368;52.156;20.788;2023-10-08T02:13:45;100054.13;;;9.83;100.00
38612;BME280;24368;52.156;20.788;2023-10-08T02:18:48;100065.48;;;9.80;100.00
38612;BME280;24368;52.156;20.788;2023-10-08T02:23:52;100070.23;;;9.78;100.00
38612;BME280;24368;52.156;20.788;2023-10-08T02:28:54;100065.98;;;9.74;100.00
38612;BME280;24368;52.156;20.788;2023-10-08T02:33:56;100087.17;;;9.76;100.00
38612;BME280;24368;52.156;20.788;2023-10-08T02:39:00;100110.89;;;9.75;100.00
38612;BME280;24368;52.156;20.788;2023-10-08T02:44:08;100122.23;;;9.69;100.00
38612;BME280;24368;52.156;20.788;2023-10-08T02:49:15;100125.84;;;9.68;100.00
38612;BME280;24368;52.156;20.788;2023-10-08T02:54:26;100136.77;;;9.61;100.00
38612;BME280;24368;52.156;20.788;2023-10-08T02:59:38;100136.82;;;9.66;100.00
38612;BME280;24368;52.156;20.788;2023-10-08T03:04:43;100144.80;;;9.67;100.00
38612;BME280;24368;52.156;20.788;2023-10-08T03:09:49;100143.98;;;9.66;100.00
38612;BME280;24368;52.156;20.788;2023-10-08T03:15:05;100141.10;;;9.65;100.00
38612;BME280;24368;52.156;20.788;2023-10-08T03:20:27;100150.55;;;9.62;100.00
38612;BME280;24368;52.156;20.788;2023-10-08T03:25:31;100151.77;;;9.64;100.00
38612;BME280;24368;52.156;20.788;2023-10-08T03:30:35;100150.73;;;9.67;100.00
38612;BME280;24368;52.156;20.788;2023-10-08T03:35:50;100165.58;;;9.62;100.00
38612;BME280;24368;52.156;20.788;2023-10-08T03:40:56;100177.10;;;9.56;100.00
38612;BME280;24368;52.156;20.788;2023-10-08T03:46:10;100188.21;;;9.55;100.00
38612;BME280;24368;52.156;20.788;2023-10-08T03:51:19;100186.25;;;9.50;100.00
38612;BME280;24368;52.156;20.788;2023-10-08T03:56:25;100189.61;;;9.42;100.00
38612;BME280;24368;52.156;20.788;2023-10-08T04:01:31;100206.11;;;9.44;100.00
38612;BME280;24368;52.156;20.788;2023-10-08T04:06:34;100215.55;;;9.42;100.00
38612;BME280;24368;52.156;20.788;2023-10-08T04:11:37;100226.23;;;9.47;100.00
38612;BME280;24368;52.156;20.788;2023-10-08T04:16:53;100231.91;;;9.45;100.00
38612;BME280;24368;52.156;20.788;2023-10-08T04:21:56;100234.25;;;9.39;100.00
38612;BME280;24368;52.156;20.788;2023-10-08T04:26:58;100241.52;;;9.31;100.00
38612;BME280;24368;52.156;20.788;2023-10-08T04:32:00;100260.00;;;9.24;100.00
38612;BME280;24368;52.156;20.788;2023-10-08T04:37:13;100270.38;;;9.15;100.00
38612;BME280;24368;52.156;20.788;2023-10-08T04:42:20;100280.70;;;9.09;100.00
38612;BME280;24368;52.156;20.788;2023-10-08T04:47:27;100287.03;;;8.95;100.00
38612;BME280;24368;52.156;20.788;2023-10-08T04:52:41;100292.09;;;8.88;100.00
38612;BME280;24368;52.156;20.788;2023-10-08T04:58:00;100302.69;;;8.87;100.00
38612;BME280;24368;52.156;20.788;2023-10-08T05:03:05;100312.21;;;8.75;100.00
38612;BME280;24368;52.156;20.788;2023-10-08T05:08:15;100323.14;;;8.64;100.00
38612;BME280;24368;52.156;20.788;2023-10-08T05:13:30;100333.30;;;8.49;100.00
38612;BME280;24368;52.156;20.788;2023-10-08T05:18:34;100338.96;;;8.46;100.00
38612;BME280;24368;52.156;20.788;2023-10-08T05:23:55;100346.94;;;8.40;100.00
38612;BME280;24368;52.156;20.788;2023-10-08T05:29:15;100353.02;;;8.38;100.00
38612;BME280;24368;52.156;20.788;2023-10-08T05:34:35;100362.27;;;8.33;100.00
38612;BME280;24368;52.156;20.788;2023-10-08T05:39:44;100369.73;;;8.26;100.00
38612;BME280;24368;52.156;20.788;2023-10-08T05:44:56;100378.18;;;8.22;100.00
38612;BME280;24368;52.156;20.788;2023-10-08T05:50:09;100398.67;;;8.22;100.00
38612;BME280;24368;52.156;20.788;2023-10-08T05:55:17;100409.46;;;8.20;100.00
38612;BME280;24368;52.156;20.788;2023-10-08T06:00:26;100423.56;;;8.17;100.00
38612;BME280;24368;52.156;20.788;2023-10-08T06:05:47;100436.27;;;8.18;100.00
38612;BME280;24368;52.156;20.788;2023-10-08T06:11:04;100454.61;;;8.17;100.00
38612;BME280;24368;52.156;20.788;2023-10-08T06:16:18;100468.67;;;8.21;100.00
38612;BME280;24368;52.156;20.788;2023-10-08T06:21:32;100482.86;;;8.15;100.00
38612;BME280;24368;52.156;20.788;2023-10-08T06:26:39;100494.90;;;8.12;100.00
38612;BME280;24368;52.156;20.788;2023-10-08T06:31:47;100504.85;;;8.11;99.40
38612;BME280;24368;52.156;20.788;2023-10-08T06:36:54;100520.34;;;8.12;97.93
38612;BME280;24368;52.156;20.788;2023-10-08T06:41:56;100531.38;;;8.17;95.53
38612;BME280;24368;52.156;20.788;2023-10-08T06:47:07;100543.21;;;8.16;94.36
38612;BME280;24368;52.156;20.788;2023-10-08T06:52:11;100545.90;;;8.07;92.93
38612;BME280;24368;52.156;20.788;2023-10-08T06:57:14;100552.26;;;8.10;91.64
38612;BME280;24368;52.156;20.788;2023-10-08T07:02:21;100558.62;;;8.06;89.97
38612;BME280;24368;52.156;20.788;2023-10-08T07:07:23;100566.95;;;8.07;88.89
38612;BME280;24368;52.156;20.788;2023-10-08T07:12:30;100575.06;;;8.08;88.32
38612;BME280;24368;52.156;20.788;2023-10-08T07:17:37;100587.77;;;8.14;87.52
38612;BME280;24368;52.156;20.788;2023-10-08T07:22:41;100597.60;;;8.20;87.70
38612;BME280;24368;52.156;20.788;2023-10-08T07:27:44;100605.36;;;8.21;85.08
38612;BME280;24368;52.156;20.788;2023-10-08T07:32:46;100611.45;;;8.28;84.42
38612;BME280;24368;52.156;20.788;2023-10-08T07:37:48;100614.30;;;8.36;84.38
38612;BME280;24368;52.156;20.788;2023-10-08T07:42:50;100625.82;;;8.41;82.31
38612;BME280;24368;52.156;20.788;2023-10-08T07:47:53;100633.70;;;8.45;81.01
38612;BME280;24368;52.156;20.788;2023-10-08T07:52:56;100643.84;;;8.52;79.62
38612;BME280;24368;52.156;20.788;2023-10-08T07:57:59;100649.92;;;8.63;79.58
38612;BME280;24368;52.156;20.788;2023-10-08T08:03:00;100653.25;;;8.69;78.57
38612;BME280;24368;52.156;20.788;2023-10-08T08:08:06;100657.36;;;8.72;77.41
38612;BME280;24368;52.156;20.788;2023-10-08T08:13:08;100659.85;;;8.66;74.68
38612;BME280;24368;52.156;20.788;2023-10-08T08:18:10;100664.43;;;8.70;75.40
38612;BME280;24368;52.156;20.788;2023-10-08T08:23:23;100673.59;;;8.75;74.59
38612;BME280;24368;52.156;20.788;2023-10-08T08:28:25;100678.91;;;8.79;73.12
38612;BME280;24368;52.156;20.788;2023-10-08T08:33:31;100682.77;;;8.79;71.37
38612;BME280;24368;52.156;20.788;2023-10-08T08:38:53;100681.92;;;8.84;71.59
38612;BME280;24368;52.156;20.788;2023-10-08T08:43:55;100687.86;;;8.91;70.20
38612;BME280;24368;52.156;20.788;2023-10-08T08:49:05;100696.00;;;9.00;70.29
38612;BME280;24368;52.156;20.788;2023-10-08T08:54:09;100695.77;;;9.02;69.72
38612;BME280;24368;52.156;20.788;2023-10-08T08:59:11;100694.61;;;9.14;70.16
38612;BME280;24368;52.156;20.788;2023-10-08T09:04:13;100698.07;;;9.24;70.48
38612;BME280;24368;52.156;20.788;2023-10-08T09:09:18;100699.33;;;9.28;68.28
38612;BME280;24368;52.156;20.788;2023-10-08T09:14:28;100705.36;;;9.31;65.11
38612;BME280;24368;52.156;20.788;2023-10-08T09:19:37;100715.16;;;9.36;63.86
38612;BME280;24368;52.156;20.788;2023-10-08T09:24:40;100714.41;;;9.42;63.47
38612;BME280;24368;52.156;20.788;2023-10-08T09:29:42;100719.34;;;9.50;63.09
38612;BME280;24368;52.156;20.788;2023-10-08T09:34:44;100730.06;;;9.58;63.27
38612;BME280;24368;52.156;20.788;2023-10-08T09:39:48;100726.88;;;9.64;62.39
38612;BME280;24368;52.156;20.788;2023-10-08T09:44:50;100734.16;;;9.69;62.03
38612;BME280;24368;52.156;20.788;2023-10-08T09:50:03;100740.01;;;9.89;62.67
38612;BME280;24368;52.156;20.788;2023-10-08T09:55:09;100733.89;;;10.08;62.26
38612;BME280;24368;52.156;20.788;2023-10-08T10:00:13;100740.54;;;10.03;61.10
38612;BME280;24368;52.156;20.788;2023-10-08T10:05:20;100743.21;;;10.14;60.08
38612;BME280;24368;52.156;20.788;2023-10-08T10:10:27;100754.69;;;10.33;58.28
38612;BME280;24368;52.156;20.788;2023-10-08T10:15:33;100759.03;;;10.43;56.58
38612;BME280;24368;52.156;20.788;2023-10-08T10:20:52;100758.95;;;10.48;57.06
38612;BME280;24368;52.156;20.788;2023-10-08T10:25:57;100774.81;;;10.65;54.25
38612;BME280;24368;52.156;20.788;2023-10-08T10:30:59;100770.26;;;10.69;54.14
38612;BME280;24368;52.156;20.788;2023-10-08T10:36:03;100769.76;;;10.79;54.61
38612;BME280;24368;52.156;20.788;2023-10-08T10:41:06;100770.08;;;10.93;54.63
38612;BME280;24368;52.156;20.788;2023-10-08T10:46:10;100762.23;;;11.23;54.22
38612;BME280;24368;52.156;20.788;2023-10-08T10:51:33;100761.77;;;11.35;52.75
38612;BME280;24368;52.156;20.788;2023-10-08T10:56:36;100760.65;;;11.41;49.66
38612;BME280;24368;52.156;20.788;2023-10-08T11:01:45;100758.17;;;11.66;49.05
38612;BME280;24368;52.156;20.788;2023-10-08T11:06:54;100757.10;;;12.00;49.80
38612;BME280;24368;52.156;20.788;2023-10-08T11:11:59;100760.70;;;12.12;47.72
38612;BME280;24368;52.156;20.788;2023-10-08T11:17:10;100766.58;;;12.10;46.70
38612;BME280;24368;52.156;20.788;2023-10-08T11:22:12;100766.84;;;12.54;44.47
38612;BME280;24368;52.156;20.788;2023-10-08T11:27:24;100769.85;;;14.14;41.02
38612;BME280;24368;52.156;20.788;2023-10-08T11:32:37;100771.93;;;14.78;40.35
38612;BME280;24368;52.156;20.788;2023-10-08T11:37:45;100770.36;;;16.67;36.12
38612;BME280;24368;52.156;20.788;2023-10-08T11:42:47;100770.75;;;17.05;35.49
38612;BME280;24368;52.156;20.788;2023-10-08T11:47:53;100766.83;;;14.82;39.41
38612;BME280;24368;52.156;20.788;2023-10-08T11:52:59;100766.29;;;13.96;39.64
38612;BME280;24368;52.156;20.788;2023-10-08T11:58:05;100770.70;;;12.87;41.91
38612;BME280;24368;52.156;20.788;2023-10-08T12:03:18;100767.63;;;12.81;41.63
38612;BME280;24368;52.156;20.788;2023-10-08T12:08:20;100774.45;;;12.30;40.89
38612;BME280;24368;52.156;20.788;2023-10-08T12:13:23;100787.88;;;12.18;41.52
38612;BME280;24368;52.156;20.788;2023-10-08T12:18:26;100787.33;;;12.04;41.47
38612;BME280;24368;52.156;20.788;2023-10-08T12:23:28;100775.38;;;12.17;41.32
38612;BME280;24368;52.156;20.788;2023-10-08T12:28:36;100778.27;;;12.65;39.02
38612;BME280;24368;52.156;20.788;2023-10-08T12:33:37;100788.09;;;12.33;39.74
38612;BME280;24368;52.156;20.788;2023-10-08T12:38:41;100792.37;;;14.37;35.57
38612;BME280;24368;52.156;20.788;2023-10-08T12:43:45;100778.64;;;17.71;30.38
38612;BME280;24368;52.156;20.788;2023-10-08T12:48:47;100796.52;;;17.73;30.33
38612;BME280;24368;52.156;20.788;2023-10-08T12:53:54;100797.30;;;14.83;34.66
38612;BME280;24368;52.156;20.788;2023-10-08T12:59:05;100802.60;;;13.74;36.35
38612;BME280;24368;52.156;20.788;2023-10-08T13:04:10;100791.73;;;12.15;41.13
38612;BME280;24368;52.156;20.788;2023-10-08T13:09:17;100799.80;;;12.45;40.72
38612;BME280;24368;52.156;20.788;2023-10-08T13:14:19;100805.69;;;11.91;42.42
38612;BME280;24368;52.156;20.788;2023-10-08T13:19:24;100808.95;;;11.83;43.25
38612;BME280;24368;52.156;20.788;2023-10-08T13:24:27;100822.15;;;11.53;43.47
38612;BME280;24368;52.156;20.788;2023-10-08T13:29:30;100825.30;;;11.36;43.67
38612;BME280;24368;52.156;20.788;2023-10-08T13:34:34;100823.00;;;11.64;43.05
38612;BME280;24368;52.156;20.788;2023-10-08T13:39:36;100815.08;;;11.73;43.82
38612;BME280;24368;52.156;20.788;2023-10-08T13:44:38;100823.10;;;11.68;43.50
38612;BME280;24368;52.156;20.788;2023-10-08T13:49:39;100831.00;;;11.64;44.02
38612;BME280;24368;52.156;20.788;2023-10-08T13:54:42;100830.59;;;11.89;45.32
38612;BME280;24368;52.156;20.788;2023-10-08T13:59:52;100830.30;;;11.96;43.97
38612;BME280;24368;52.156;20.788;2023-10-08T14:04:54;100834.08;;;11.79;43.01
38612;BME280;24368;52.156;20.788;2023-10-08T14:09:58;100836.14;;;11.58;43.71
38612;BME280;24368;52.156;20.788;2023-10-08T14:15:02;100832.76;;;11.58;42.68
38612;BME280;24368;52.156;20.788;2023-10-08T14:20:09;100833.34;;;11.63;42.56
38612;BME280;24368;52.156;20.788;2023-10-08T14:25:26;100848.49;;;11.74;42.65
38612;BME280;24368;52.156;20.788;2023-10-08T14:30:32;100847.23;;;11.69;43.02
38612;BME280;24368;52.156;20.788;2023-10-08T14:35:37;100858.64;;;11.68;43.41
38612;BME280;24368;52.156;20.788;2023-10-08T14:40:57;100860.83;;;11.56;43.44
38612;BME280;24368;52.156;20.788;2023-10-08T14:46:18;100870.55;;;11.47;42.52
38612;BME280;24368;52.156;20.788;2023-10-08T14:51:21;100873.29;;;11.38;43.00
38612;BME280;24368;52.156;20.788;2023-10-08T14:56:26;100874.54;;;11.27;42.45
38612;BME280;24368;52.156;20.788;2023-10-08T15:01:30;100874.08;;;11.23;42.45
38612;BME280;24368;52.156;20.788;2023-10-08T15:06:34;100874.77;;;11.17;41.90
38612;BME280;24368;52.156;20.788;2023-10-08T15:11:36;100881.81;;;11.04;41.53
38612;BME280;24368;52.156;20.788;2023-10-08T15:16:38;100884.27;;;10.97;42.03
38612;BME280;24368;52.156;20.788;2023-10-08T15:21:41;100893.50;;;10.89;42.65
38612;BME280;24368;52.156;20.788;2023-10-08T15:26:43;100899.15;;;10.79;42.28
38612;BME280;24368;52.156;20.788;2023-10-08T15:31:45;100908.43;;;10.68;42.74
38612;BME280;24368;52.156;20.788;2023-10-08T15:36:46;100915.93;;;10.58;43.36
38612;BME280;24368;52.156;20.788;2023-10-08T15:41:49;100926.50;;;10.48;44.01
38612;BME280;24368;52.156;20.788;2023-10-08T15:46:51;100931.67;;;10.36;43.71
38612;BME280;24368;52.156;20.788;2023-10-08T15:51:53;100939.97;;;10.25;44.32
38612;BME280;24368;52.156;20.788;2023-10-08T15:56:55;100942.34;;;10.15;45.10
38612;BME280;24368;52.156;20.788;2023-10-08T16:01:57;100953.98;;;10.06;46.22
38612;BME280;24368;52.156;20.788;2023-10-08T16:07:00;100971.20;;;9.95;46.90
38612;BME280;24368;52.156;20.788;2023-10-08T16:12:01;100982.60;;;9.81;47.76
38612;BME280;24368;52.156;20.788;2023-10-08T16:17:03;100988.27;;;9.74;48.29
38612;BME280;24368;52.156;20.788;2023-10-08T16:22:08;100992.77;;;9.69;48.87
38612;BME280;24368;52.156;20.788;2023-10-08T16:27:10;100997.20;;;9.61;49.35
38612;BME280;24368;52.156;20.788;2023-10-08T16:32:14;100999.65;;;9.55;49.86
38612;BME280;24368;52.156;20.788;2023-10-08T16:37:16;101007.32;;;9.47;49.72
38612;BME280;24368;52.156;20.788;2023-10-08T16:42:23;101020.37;;;9.39;49.87
38612;BME280;24368;52.156;20.788;2023-10-08T16:47:26;101029.31;;;9.26;50.01
38612;BME280;24368;52.156;20.788;2023-10-08T16:52:28;101039.86;;;9.21;50.32
38612;BME280;24368;52.156;20.788;2023-10-08T16:57:41;101045.67;;;9.22;51.15
38612;BME280;24368;52.156;20.788;2023-10-08T17:02:52;101051.06;;;9.08;50.79
38612;BME280;24368;52.156;20.788;2023-10-08T17:07:54;101055.90;;;8.94;51.26
38612;BME280;24368;52.156;20.788;2023-10-08T17:12:57;101056.20;;;8.91;51.36
38612;BME280;24368;52.156;20.788;2023-10-08T17:18:00;101058.67;;;8.76;52.25
38612;BME280;24368;52.156;20.788;2023-10-08T17:23:02;101061.61;;;8.54;53.71
38612;BME280;24368;52.156;20.788;2023-10-08T17:28:08;101069.92;;;8.34;54.04
38612;BME280;24368;52.156;20.788;2023-10-08T17:33:30;101075.53;;;8.27;55.36
38612;BME280;24368;52.156;20.788;2023-10-08T17:43:07;101091.36;;;8.11;55.89
38612;BME280;24368;52.156;20.788;2023-10-08T17:48:36;101100.62;;;7.91;56.89
38612;BME280;24368;52.156;20.788;2023-10-08T17:53:52;101107.96;;;7.83;57.41
38612;BME280;24368;52.156;20.788;2023-10-08T17:59:20;101109.38;;;7.73;57.82
38612;BME280;24368;52.156;20.788;2023-10-08T18:05:31;101119.88;;;7.57;58.27
38612;BME280;24368;52.156;20.788;2023-10-08T18:11:44;101122.80;;;7.47;58.93
38612;BME280;24368;52.156;20.788;2023-10-08T18:17:01;101122.92;;;7.40;58.84
38612;BME280;24368;52.156;20.788;2023-10-08T18:22:03;101125.52;;;7.36;58.85
38612;BME280;24368;52.156;20.788;2023-10-08T18:27:06;101133.79;;;7.38;58.56
38612;BME280;24368;52.156;20.788;2023-10-08T18:32:15;101132.26;;;7.42;58.02
38612;BME280;24368;52.156;20.788;2023-10-08T18:37:45;101130.70;;;7.46;58.20
38612;BME280;24368;52.156;20.788;2023-10-08T18:43:09;101132.09;;;7.49;58.68
38612;BME280;24368;52.156;20.788;2023-10-08T18:48:13;101137.36;;;7.32;58.80
38612;BME280;24368;52.156;20.788;2023-10-08T18:53:23;101142.84;;;7.22;59.36
38612;BME280;24368;52.156;20.788;2023-10-08T19:03:00;101145.64;;;7.08;60.91
38612;BME280;24368;52.156;20.788;2023-10-08T19:08:37;101150.32;;;6.97;60.91
38612;BME280;24368;52.156;20.788;2023-10-08T19:13:39;101157.36;;;6.94;61.72
38612;BME280;24368;52.156;20.788;2023-10-08T19:19:14;101162.38;;;6.90;62.27
38612;BME280;24368;52.156;20.788;2023-10-08T19:24:30;101168.16;;;6.78;63.53
38612;BME280;24368;52.156;20.788;2023-10-08T19:29:52;101174.45;;;6.55;65.27
38612;BME280;24368;52.156;20.788;2023-10-08T19:35:11;101183.70;;;6.36;67.23
38612;BME280;24368;52.156;20.788;2023-10-08T19:40:23;101185.05;;;6.22;68.63
38612;BME280;24368;52.156;20.788;2023-10-08T19:45:50;101189.14;;;6.15;69.75
38612;BME280;24368;52.156;20.788;2023-10-08T19:50:51;101192.73;;;6.04;70.90
38612;BME280;24368;52.156;20.788;2023-10-08T20:01:18;101202.17;;;5.82;73.28
38612;BME280;24368;52.156;20.788;2023-10-08T20:06:35;101203.34;;;5.91;73.24
38612;BME280;24368;52.156;20.788;2023-10-08T20:11:41;101204.59;;;5.80;73.62
38612;BME280;24368;52.156;20.788;2023-10-08T20:16:50;101210.09;;;5.77;73.67
38612;BME280;24368;52.156;20.788;2023-10-08T20:22:17;101217.13;;;5.55;74.69
38612;BME280;24368;52.156;20.788;2023-10-08T20:27:22;101223.23;;;5.50;74.94
38612;BME280;24368;52.156;20.788;2023-10-08T20:32:23;101226.97;;;5.40;75.34
38612;BME280;24368;52.156;20.788;2023-10-08T20:37:27;101232.10;;;5.37;75.48
38612;BME280;24368;52.156;20.788;2023-10-08T20:42:28;101236.36;;;5.25;76.20
38612;BME280;24368;52.156;20.788;2023-10-08T20:47:31;101238.34;;;5.27;76.57
38612;BME280;24368;52.156;20.788;2023-10-08T20:52:33;101242.75;;;5.12;77.23
38612;BME280;24368;52.156;20.788;2023-10-08T20:57:34;101248.83;;;5.02;77.98
38612;BME280;24368;52.156;20.788;2023-10-08T21:02:35;101249.62;;;4.95;78.69
38612;BME280;24368;52.156;20.788;2023-10-08T21:07:39;101243.38;;;4.91;79.84
38612;BME280;24368;52.156;20.788;2023-10-08T21:12:46;101251.98;;;4.79;80.46
38612;BME280;24368;52.156;20.788;2023-10-08T21:17:50;101250.63;;;4.58;81.97
38612;BME280;24368;52.156;20.788;2023-10-08T21:22:51;101254.70;;;4.43;83.58
38612;BME280;24368;52.156;20.788;2023-10-08T21:27:54;101260.45;;;4.40;84.30
38612;BME280;24368;52.156;20.788;2023-10-08T21:32:59;101259.41;;;4.40;84.46
38612;BME280;24368;52.156;20.788;2023-10-08T21:38:02;101265.60;;;4.45;84.79
38612;BME280;24368;52.156;20.788;2023-10-08T21:43:04;101269.01;;;4.43;84.76
38612;BME280;24368;52.156;20.788;2023-10-08T21:48:05;101265.67;;;4.40;85.59
38612;BME280;24368;52.156;20.788;2023-10-08T21:53:11;101265.86;;;4.40;85.50
38612;BME280;24368;52.156;20.788;2023-10-08T21:58:13;101259.77;;;4.29;86.57
38612;BME280;24368;52.156;20.788;2023-10-08T22:03:14;101264.95;;;4.30;87.13
38612;BME280;24368;52.156;20.788;2023-10-08T22:08:16;101265.18;;;4.16;88.70
38612;BME280;24368;52.156;20.788;2023-10-08T22:13:43;101265.16;;;4.11;90.22
38612;BME280;24368;52.156;20.788;2023-10-08T22:19:16;101265.17;;;4.10;90.35
38612;BME280;24368;52.156;20.788;2023-10-08T22:24:17;101269.82;;;4.00;90.47
38612;BME280;24368;52.156;20.788;2023-10-08T22:29:19;101262.98;;;3.98;90.56
38612;BME280;24368;52.156;20.788;2023-10-08T22:34:20;101255.54;;;3.97;90.66
38612;BME280;24368;52.156;20.788;2023-10-08T22:39:29;101256.64;;;3.96;90.66
38612;BME280;24368;52.156;20.788;2023-10-08T22:44:39;101259.56;;;3.93;91.30
38612;BME280;24368;52.156;20.788;2023-10-08T22:49:55;101256.44;;;3.90;91.78
38612;BME280;24368;52.156;20.788;2023-10-08T22:55:11;101261.02;;;3.89;92.09
38612;BME280;24368;52.156;20.788;2023-10-08T23:00:58;101256.82;;;3.99;91.39
38612;BME280;24368;52.156;20.788;2023-10-08T23:06:31;101260.48;;;3.89;91.94
38612;BME280;24368;52.156;20.788;2023-10-08T23:11:44;101258.80;;;3.83;92.58
38612;BME280;24368;52.156;20.788;2023-10-08T23:17:12;101250.71;;;3.93;92.30
38612;BME280;24368;52.156;20.788;2023-10-08T23:22:30;101253.80;;;3.94;91.30
38612;BME280;24368;52.156;20.788;2023-10-08T23:27:43;101261.09;;;3.82;92.05
38612;BME280;24368;52.156;20.788;2023-10-08T23:33:01;101258.77;;;3.71;93.26
38612;BME280;24368;52.156;20.788;2023-10-08T23:38:54;101252.58;;;3.82;92.53
38612;BME280;24368;52.156;20.788;2023-10-08T23:45:18;101245.96;;;3.87;91.44
38612;BME280;24368;52.156;20.788;2023-10-08T23:50:36;101237.70;;;3.77;92.49
